createdAt,value
2023-03-16T00:00:02.584Z,-2.0
2023-03-16T00:15:03.000Z,-1.9
2023-03-16T00:30:02.541Z,-1.9
2023-03-16T00:45:02.848Z,-2.1
2023-03-16T01:00:02.513Z,-2.1
2023-03-16T01:15:02.756Z,-2.1
2023-03-16T01:30:02.194Z,-2.1
2023-03-16T01:45:02.643Z,-1.9
2023-03-16T02:00:03.093Z,-1.7
2023-03-16T02:15:02.566Z,-1.6
2023-03-16T02:30:02.956Z,-1.3
2023-03-16T02:45:02.577Z,-1.2
2023-03-16T03:00:02.828Z,-1.1
2023-03-16T03:15:03.307Z,-1.0
2023-03-16T03:30:02.688Z,-1.1
2023-03-16T03:45:03.121Z,-1.1
2023-03-16T04:00:02.579Z,-0.6
2023-03-16T04:15:02.986Z,0.1
2023-03-16T04:30:02.576Z,0.6
2023-03-16T04:45:02.876Z,0.8
2023-03-16T05:00:02.304Z,1.0
2023-03-16T05:15:02.751Z,1.3
2023-03-16T05:30:02.188Z,1.5
2023-03-16T05:45:02.644Z,1.8
2023-03-16T06:00:03.094Z,1.9
2023-03-16T06:15:02.644Z,2.5
2023-03-16T06:30:02.970Z,2.9
2023-03-16T06:45:02.821Z,3.3
2023-03-16T07:00:02.820Z,3.7
2023-03-16T07:15:03.276Z,4.0
2023-03-16T07:30:02.721Z,4.1
2023-03-16T07:45:03.138Z,4.3
2023-03-16T08:00:02.628Z,4.7
2023-03-16T08:15:03.013Z,4.9
2023-03-16T08:30:02.636Z,5.0
2023-03-16T08:45:02.849Z,5.5
2023-03-16T09:00:02.344Z,6.0
2023-03-16T09:15:02.710Z,7.4
2023-03-16T09:30:03.149Z,8.1
2023-03-16T09:45:02.644Z,8.3
2023-03-16T10:00:03.015Z,8.0
2023-03-16T10:15:02.742Z,8.2
2023-03-16T10:45:03.367Z,8.8
2023-03-16T11:00:02.774Z,9.3
2023-03-16T11:15:03.735Z,9.5
2023-03-16T11:30:03.668Z,9.0
2023-03-16T11:45:03.101Z,8.4
2023-03-16T12:00:02.689Z,8.1
2023-03-16T12:15:02.966Z,8.5
2023-03-16T12:30:02.403Z,9.5
2023-03-16T12:45:02.847Z,9.7
2023-03-16T13:00:02.276Z,9.9
2023-03-16T13:15:02.730Z,9.7
2023-03-16T13:30:02.204Z,10.1
2023-03-16T13:45:02.731Z,10.5
2023-03-16T14:00:03.059Z,10.2
2023-03-16T14:15:02.701Z,10.1
2023-03-16T14:30:02.960Z,10.1
2023-03-16T14:45:02.433Z,10.4
2023-03-16T15:00:02.866Z,10.6
2023-03-16T15:15:02.234Z,10.1
2023-03-16T15:30:02.727Z,9.8
2023-03-16T15:45:03.146Z,9.8
2023-03-16T16:00:02.714Z,9.5
2023-03-16T16:15:02.993Z,9.1
2023-03-16T16:30:02.434Z,9.1
2023-03-16T16:45:02.871Z,9.0
2023-03-16T17:00:02.342Z,8.7
2023-03-16T17:15:02.787Z,8.4
2023-03-16T17:30:02.181Z,8.2
2023-03-16T17:45:02.733Z,7.7
2023-03-16T18:00:03.119Z,7.2
2023-03-16T18:15:02.720Z,6.8
2023-03-16T18:30:02.919Z,6.6
2023-03-16T18:45:02.385Z,6.6
2023-03-16T19:00:02.801Z,6.6
2023-03-16T19:15:03.252Z,6.7
2023-03-16T19:30:02.746Z,6.6
2023-03-16T19:45:03.131Z,6.9
2023-03-16T20:00:02.780Z,6.7
2023-03-16T20:15:02.981Z,6.6
2023-03-16T20:30:02.401Z,6.5
2023-03-16T20:45:02.854Z,6.5
2023-03-16T21:00:02.262Z,6.6
2023-03-16T21:15:02.794Z,6.8
2023-03-16T21:30:02.163Z,6.7
2023-03-16T21:45:02.784Z,6.6
2023-03-16T22:00:03.044Z,6.7
2023-03-16T22:15:02.478Z,6.7
2023-03-16T22:30:02.953Z,6.6
2023-03-16T22:45:02.425Z,6.3
2023-03-16T23:00:02.840Z,6.0
2023-03-16T23:15:02.239Z,6.1
2023-03-16T23:30:02.817Z,6.2
2023-03-16T23:45:02.115Z,6.2
